• Join FlightAware (Why Join?)
  • Login
  • US Flag 
11:37PM EDT


 

Airport Tracker/Info


-or-


 

Live Flight TrackerFlight Track Log ✈ N654DL ✈ 26-Apr-2013 ✈ KSNA - KATL

Flight Track Log - Related Links

Times and Time Zones

All times are in EDT time to prevent confusion due to time zone crossing. See the N654DL flight status page for this flight to view local times or setup timezone preferences in your user account.

Time Position Orientation Groundspeed Altitude Reporting Facility
EDT Latitude Longitude Course Direction KTS MPH feet Rate Location/Type
10:05AM 33.6569 -117.8797 90° East 146 168 37,000  Level Los Angeles Center
10:05AM 33.6333 -117.8833 187° South 164 189 1,900 -33,360 Descending Southern California TRACON
10:06AM 33.6128 -117.8928 201° Southwest 165 190 3,100 1,500 Climbing Los Angeles Center
10:07AM 33.5550 -117.8928 180° South 210 242 4,500 1,740 Climbing Los Angeles Center
10:08AM 33.5136 -117.6051 54° Northeast  Level FlightAware Approximate
10:08AM 33.5294 -117.8106 110° East 268 308 6,800  Level Los Angeles Center
10:09AM 33.5697 -117.4576 68° East  Level FlightAware Approximate
10:09AM 33.5444 -117.7186 79° East 280 322 9,800  Level Los Angeles Center
10:10AM 33.5833 -117.2984 90° East  Level FlightAware Approximate
10:10AM 33.5656 -117.5925 79° East 317 365 11,500  Level Los Angeles Center
10:11AM 33.5822 -117.4714 81° East 362 417 14,300 2,040 Climbing Los Angeles Center
10:12AM 33.5892 -117.3431 86° East 387 445 15,800 1,680 Climbing Los Angeles Center
10:13AM 33.5933 -117.2100 88° East 400 460 17,800 1,860 Climbing Los Angeles Center
10:14AM 33.5986 -117.0703 87° East 417 480 19,700 1,620 Climbing Los Angeles Center
10:16AM 33.6042 -116.9258 87° East 432 497 21,500 1,440 Climbing Los Angeles Center
10:17AM 33.6103 -116.7219 88° East 449 517 23,000 720 Climbing Los Angeles Center
10:18AM 33.6161 -116.5656 87° East 464 534 23,000  Level Los Angeles Center
10:19AM 33.6208 -116.4139 88° East 456 525 23,000  Level Los Angeles Center
10:20AM 33.6247 -116.2628 88° East 452 520 23,000 300 Level Los Angeles Center
10:21AM 33.6344 -116.1089 86° East 461 531 23,700 1,020 Climbing Los Angeles Center
10:22AM 33.6547 -115.9869 79° East 465 535 25,200 1,380 Climbing Los Angeles Center
10:23AM 33.6847 -115.8033 79° East 467 537 26,600 1,200 Climbing Los Angeles Center
10:24AM 33.7111 -115.6450 79° East 478 550 27,700 1,200 Climbing Los Angeles Center
10:25AM 33.7417 -115.4475 79° East 497 572 29,100 1,500 Climbing Los Angeles Center
10:26AM 33.7678 -115.2847 79° East 498 573 30,800 1,380 Climbing Los Angeles Center
10:27AM 33.7928 -115.1214 80° East 498 573 32,000 1,020 Climbing Los Angeles Center
10:28AM 33.8183 -114.9597 79° East 493 567 33,000 1,080 Climbing Los Angeles Center
10:29AM 33.8447 -114.7947 79° East 502 578 34,300 1,020 Climbing Los Angeles Center
10:31AM 33.8897 -114.5086 79° East 495 570 35,900 840 Climbing Albuquerque Center
10:31AM 33.8944 -114.4722 81° East 493 567 36,100 660 Climbing Los Angeles Center
10:32AM 33.9156 -114.3428 79° East 502 578 36,600 480 Climbing Albuquerque Center
10:33AM 33.9408 -114.1636 80° East 496 571 37,000 180 Climbing Albuquerque Center
10:34AM 33.9642 -114.0003 80° East 497 572 37,000  Level Albuquerque Center
10:35AM 33.9892 -113.8353 80° East 500 575 37,000  Level Albuquerque Center
10:36AM 34.0122 -113.6697 80° East 502 578 37,000  Level Albuquerque Center
10:37AM 34.0361 -113.5036 80° East 503 579 37,000  Level Albuquerque Center
10:38AM 34.0647 -113.3036 80° East 504 580 37,000  Level Albuquerque Center
10:39AM 34.0878 -113.1350 81° East 507 583 37,000  Level Albuquerque Center
10:40AM 34.1106 -112.9700 80° East 502 578 37,000  Level Albuquerque Center
10:41AM 34.1333 -112.8036 81° East 502 578 37,000  Level Albuquerque Center
10:42AM 34.1517 -112.6358 82° East 504 580 37,000  Level Albuquerque Center
10:43AM 34.1653 -112.4686 84° East 502 578 37,000  Level Albuquerque Center
10:44AM 34.1803 -112.3011 84° East 501 577 37,000  Level Albuquerque Center
10:45AM 34.1983 -112.0992 84° East 501 577 37,000  Level Albuquerque Center
10:46AM 34.2125 -111.9478 84° East 501 577 37,000  Level Albuquerque Center
10:47AM 34.2300 -111.7508 84° East 502 578 37,000  Level Albuquerque Center
10:48AM 34.2422 -111.5892 85° East 503 579 37,000  Level Albuquerque Center
10:49AM 34.2569 -111.4189 84° East 506 582 37,000  Level Albuquerque Center
10:50AM 34.2714 -111.2483 84° East 507 583 37,000  Level Albuquerque Center
10:51AM 34.2850 -111.0797 84° East 507 583 37,000  Level Albuquerque Center
10:52AM 34.2981 -110.9092 85° East 508 585 37,000  Level Albuquerque Center
10:53AM 34.3150 -110.7050 84° East 508 585 37,000  Level Albuquerque Center
10:54AM 34.3281 -110.5353 85° East 507 583 37,000  Level Albuquerque Center
10:55AM 34.3419 -110.3575 85° East 510 587 37,000  Level Albuquerque Center
10:57AM 34.3528 -110.1933 85° East 512 589 37,000  Level Albuquerque Center
10:58AM 34.3658 -110.0017 85° East 512 589 37,000  Level Albuquerque Center
10:59AM 34.3781 -109.8364 85° East 514 592 37,000  Level Albuquerque Center
11:00AM 34.3911 -109.6425 85° East 518 596 37,000  Level Albuquerque Center
11:01AM 34.4022 -109.4803 85° East 512 589 37,000  Level Albuquerque Center
11:02AM 34.4150 -109.2858 85° East 515 593 37,000  Level Albuquerque Center
11:03AM 34.4286 -109.1189 84° East 519 597 37,000  Level Albuquerque Center
11:04AM 34.4583 -108.9297 79° East 517 595 37,000  Level Albuquerque Center
11:05AM 34.4842 -108.7667 79° East 516 594 37,000  Level Albuquerque Center
11:06AM 34.5150 -108.5758 79° East 517 595 37,000  Level Albuquerque Center
11:07AM 34.5394 -108.4161 79° East 515 593 37,000  Level Albuquerque Center
11:08AM 34.5661 -108.2472 79° East 513 590 37,000  Level Albuquerque Center
11:09AM 34.5919 -108.0775 79° East 513 590 37,000  Level Albuquerque Center
11:10AM 34.6169 -107.9078 80° East 512 589 37,000  Level Albuquerque Center
11:11AM 34.6475 -107.7025 80° East 515 593 37,000  Level Albuquerque Center
11:12AM 34.6725 -107.5319 80° East 515 593 37,000  Level Albuquerque Center
11:13AM 34.6978 -107.3625 80° East 515 593 37,000  Level Albuquerque Center
11:14AM 34.7206 -107.1914 81° East 515 593 37,000  Level Albuquerque Center
11:15AM 34.7450 -107.0219 80° East 515 593 37,000  Level Albuquerque Center
11:16AM 34.7744 -106.8172 80° East 519 597 37,000  Level Albuquerque Center
11:17AM 34.7961 -106.6475 81° East 516 594 37,000  Level Albuquerque Center
11:18AM 34.8208 -106.4789 80° East 514 592 37,000  Level Albuquerque Center
11:19AM 34.8436 -106.3083 81° East 514 592 37,000  Level Albuquerque Center
11:20AM 34.8661 -106.1364 81° East 516 594 37,000  Level Albuquerque Center
11:21AM 34.8931 -105.9317 81° East 514 592 37,000  Level Albuquerque Center
11:22AM 34.9161 -105.7711 80° East 511 588 37,000  Level Albuquerque Center
11:23AM 34.9383 -105.5983 81° East 512 589 37,000  Level Albuquerque Center
11:24AM 34.9642 -105.3944 81° East 515 593 37,000  Level Albuquerque Center
11:25AM 34.9872 -105.2197 81° East 517 595 37,000  Level Albuquerque Center
11:26AM 35.0097 -105.0458 81° East 516 594 37,000  Level Albuquerque Center
11:28AM 35.0314 -104.8706 81° East 517 595 37,000  Level Albuquerque Center
11:29AM 35.0528 -104.6953 81° East 519 597 37,000  Level Albuquerque Center
11:30AM 35.0786 -104.4931 81° East 520 598 37,000  Level Albuquerque Center
11:31AM 35.0983 -104.3311 81° East 524 603 37,000  Level Albuquerque Center
11:32AM 35.1192 -104.1517 82° East 531 611 37,000  Level Albuquerque Center
11:33AM 35.1400 -103.9753 82° East 528 608 37,000  Level Albuquerque Center
11:34AM 35.1614 -103.7842 82° East 528 608 37,000  Level Albuquerque Center
11:35AM 35.1817 -103.6064 82° East 526 605 37,000  Level Albuquerque Center
11:36AM 35.1953 -103.3978 85° East 525 604 37,000  Level Albuquerque Center
11:37AM 35.2036 -103.2206 87° East 520 598 37,000  Level Albuquerque Center
11:38AM 35.2131 -103.0431 86° East 520 598 37,000  Level Albuquerque Center
11:39AM 35.2211 -102.8800 86° East 522 601 37,000  Level Albuquerque Center
11:40AM 35.2314 -102.6678 87° East 523 602 37,000  Level Albuquerque Center
11:41AM 35.2400 -102.4892 87° East 526 605 37,000  Level Albuquerque Center
11:42AM 35.2489 -102.3097 86° East 529 609 37,000  Level Albuquerque Center
11:43AM 35.2569 -102.1303 87° East 529 609 37,000  Level Albuquerque Center
11:44AM 35.2658 -101.9308 87° East 530 610 37,000  Level Albuquerque Center
11:45AM 35.2761 -101.7500 86° East 530 610 37,000  Level Albuquerque Center
11:46AM 35.2853 -101.5839 86° East 528 608 37,000  Level Albuquerque Center
11:47AM 35.2894 -101.4042 88° East 527 606 37,000  Level Albuquerque Center
11:48AM 35.2964 -101.2186 87° East 527 606 37,000  Level Albuquerque Center
11:49AM 35.3047 -101.0056 87° East 523 602 37,000  Level Albuquerque Center
11:50AM 35.3114 -100.8278 87° East 523 602 37,000  Level Albuquerque Center
11:51AM 35.3169 -100.6558 88° East 521 600 37,000  Level Albuquerque Center
11:52AM 35.3236 -100.4778 87° East 522 601 37,000  Level Albuquerque Center
11:53AM 35.3275 -100.3006 88° East 521 600 37,000  Level Albuquerque Center
11:54AM 35.3339 -100.0883 88° East 521 600 37,000  Level Albuquerque Center
11:55AM 35.3386 -99.9094 88° East 525 604 37,000  Level Albuquerque Center
11:56AM 35.3439 -99.7333 88° East 521 600 37,000  Level Albuquerque Center
11:58AM 35.3478 -99.5547 88° East 524 603 37,000  Level Albuquerque Center
11:59AM 35.3497 -99.3769 89° East 525 604 37,000  Level Albuquerque Center
11:59AM 35.3497 -99.1978 90° East 513 590 37,000  Level Fort Worth Center
12:00PM 35.3500 -99.0194 90° East 513 590 37,000 360 Level Fort Worth Center
12:01PM 35.3625 -98.8417 85° East 513 590 37,800 720 Climbing Fort Worth Center
12:02PM 35.3894 -98.6664 79° East 513 590 38,500 600 Climbing Fort Worth Center
12:03PM 35.4183 -98.4911 79° East 518 596 39,000 240 Climbing Fort Worth Center
12:04PM 35.4425 -98.3358 79° East 523 602 39,000  Level Fort Worth Center
12:05PM 35.4706 -98.1631 79° East 523 602 39,000  Level Fort Worth Center
12:07PM 35.4992 -97.9158 82° East 527 606 39,000  Level Fort Worth Center
12:08PM 35.5017 -97.7400 89° East 515 593 39,000  Level Fort Worth Center
12:09PM 35.4978 -97.5614 91° East 515 593 39,000  Level Fort Worth Center
12:10PM 35.4939 -97.3575 91° East 521 600 39,000  Level Fort Worth Center
12:11PM 35.4894 -97.1714 92° East 534 615 39,000  Level Fort Worth Center
12:12PM 35.4828 -96.9956 93° East 534 615 39,000  Level Fort Worth Center
12:13PM 35.4778 -96.8197 92° East 524 603 39,000  Level Fort Worth Center
12:14PM 35.4728 -96.6439 92° East 518 596 39,000  Level Fort Worth Center
12:15PM 35.4694 -96.4656 91° East 518 596 39,000  Level Fort Worth Center
12:16PM 35.4639 -96.2897 92° East 513 590 39,000  Level Fort Worth Center
12:17PM 35.4578 -96.1139 92° East 513 590 39,000  Level Fort Worth Center
12:18PM 35.4519 -95.9381 92° East 513 590 39,000  Level Fort Worth Center
12:19PM 35.4456 -95.6919 92° East 518 596 39,000  Level Kansas City Center
12:20PM 35.4403 -95.5811 93° East 519 597 39,000  Level Memphis Center
12:21PM 35.4350 -95.4050 92° East 519 597 39,000  Level Memphis Center
12:22PM 35.4275 -95.2286 93° East 519 597 39,000  Level Memphis Center
12:23PM 35.4211 -95.0653 93° East 519 597 39,000  Level Memphis Center
12:24PM 35.4131 -94.8892 93° East 524 603 39,000  Level Memphis Center
12:25PM 35.4050 -94.7103 93° East 524 603 39,000  Level Memphis Center
12:26PM 35.3964 -94.5317 93° East 524 603 39,000  Level Memphis Center
12:27PM 35.3878 -94.3503 93° East 518 596 39,000  Level Memphis Center
12:28PM 35.3789 -94.1717 93° East 523 602 39,000  Level Memphis Center
12:29PM 35.3675 -93.9903 94° East 529 609 39,000  Level Memphis Center
12:30PM 35.3539 -93.8142 95° East 529 609 39,000  Level Memphis Center
12:31PM 35.3419 -93.6381 95° East 523 602 39,000  Level Memphis Center
12:32PM 35.3297 -93.4619 95° East 523 602 39,000  Level Memphis Center
12:33PM 35.3175 -93.2758 95° East 517 595 39,000  Level Memphis Center
12:34PM 35.3006 -93.0969 97° East 517 595 39,000  Level Memphis Center
12:35PM 35.2858 -92.9186 96° East 517 595 39,000  Level Memphis Center
12:36PM 35.2725 -92.7478 95° East 522 601 39,000  Level Memphis Center
12:37PM 35.2214 -92.5786 110° East 522 601 39,000  Level Memphis Center
12:38PM 35.1678 -92.4222 113° Southeast 516 594 39,000  Level Memphis Center
12:39PM 35.1139 -92.2633 112° Southeast 504 580 39,000  Level Memphis Center
12:40PM 35.1017 -92.0958 95° East 484 557 39,000  Level Memphis Center
12:41PM 35.0956 -91.9231 92° East 495 570 39,000  Level Memphis Center
12:42PM 35.0914 -91.7478 92° East 507 583 39,000  Level Memphis Center
12:43PM 35.0828 -91.5675 93° East 518 596 39,000  Level Memphis Center
12:44PM 35.0783 -91.3922 92° East 518 596 39,000  Level Memphis Center
12:45PM 35.0733 -91.2172 92° East 513 590 39,000  Level Memphis Center
12:46PM 35.0661 -91.0447 93° East 520 598 39,000  Level Memphis Center
12:47PM 35.0586 -90.8644 93° East 520 598 39,000  Level Memphis Center
12:48PM 35.0508 -90.6894 93° East 512 589 39,000  Level Memphis Center
12:49PM 35.0428 -90.5322 94° East 519 597 39,000  Level Memphis Center
12:50PM 35.0344 -90.3544 93° East 519 597 39,000  Level Memphis Center
12:51PM 35.0261 -90.1769 93° East 519 597 39,000  Level Memphis Center
12:52PM 35.0172 -89.9994 93° East 519 597 39,000  Level Memphis Center
12:53PM 34.9997 -89.8069 96° East 519 597 39,000  Level Memphis Center
12:54PM 34.9675 -89.6222 102° East 536 617 39,000  Level Memphis Center
12:55PM 34.9372 -89.4478 102° East 541 623 39,000  Level Memphis Center
12:56PM 34.9108 -89.2783 101° East 521 600 39,000  Level Memphis Center
12:57PM 34.8842 -89.1064 101° East 521 600 39,000 -60 Level Memphis Center
12:58PM 34.8617 -88.9525 100° East 516 594 38,900 -900 Descending Memphis Center
12:59PM 34.8344 -88.7808 101° East 521 600 37,200 -1,500 Descending Memphis Center
01:00PM 34.8072 -88.6044 101° East 526 605 36,000 -1,200 Descending Memphis Center
01:01PM 34.7817 -88.4356 100° East 521 600 34,900 -1,020 Descending Memphis Center
01:02PM 34.7517 -88.2617 102° East 521 600 34,000 -900 Descending Memphis Center
01:03PM 34.7233 -88.0781 101° East 541 623 33,100 -540 Descending Memphis Center
01:04PM 34.6947 -87.8892 100° East 535 616 33,000 -60 Descending Memphis Center
01:05PM 34.6664 -87.7183 101° East 521 600 33,000  Level Memphis Center
01:06PM 34.6375 -87.5478 102° East 516 594 33,000  Level Memphis Center
01:07PM 34.5944 -87.2914 101° East 489 563 33,000  Level Atlanta Center
01:08PM 34.5611 -87.1236 104° East 494 568 33,000  Level Atlanta Center
01:09PM 34.5278 -86.9533 103° East 499 574 33,000 -360 Level Atlanta Center
01:10PM 34.5000 -86.8039 103° East 504 580 32,300 -1,020 Descending Atlanta Center
01:11PM 34.4681 -86.6364 103° East 504 580 31,000 -1,260 Descending Atlanta Center
01:12PM 34.4342 -86.4642 103° East 514 592 29,800 -1,200 Descending Atlanta Center
01:13PM 34.4017 -86.2969 103° East 514 592 28,600 -1,260 Descending Atlanta Center
01:14PM 34.3692 -86.1275 103° East 514 592 27,300 -1,440 Descending Atlanta Center
01:15PM 34.3364 -85.9633 104° East 514 592 25,800 -2,280 Descending Atlanta Center
01:16PM 34.3033 -85.8017 104° East 509 586 22,800 -2,640 Descending Atlanta Center
01:17PM 34.2722 -85.6425 103° East 491 565 20,600 -2,160 Descending Atlanta Center
01:18PM 34.2408 -85.4911 104° East 470 541 18,500 -1,920 Descending Atlanta Center
01:19PM 34.2131 -85.3525 104° East 440 506 16,800 -1,920 Descending Atlanta Center
01:20PM 34.1811 -85.2139 106° East 424 488 14,700 -1,800 Descending Atlanta Center
01:21PM 34.1383 -85.0828 111° Southeast 407 468 13,300 -900 Descending Atlanta Center
01:22PM 34.0703 -84.9992 134° Southeast 364 419 13,000 -900 Descending Atlanta Center
01:23PM 34.0081 -84.9233 135° Southeast 335 386 11,600 -1,380 Descending Atlanta Center
01:24PM 33.9247 -84.9050 170° South 301 346 10,300 -1,320 Descending Atlanta Center
01:25PM 33.8433 -84.8992 177° South 289 333 9,000 -1,260 Descending Atlanta Center
01:26PM 33.7642 -84.8933 176° South 289 333 7,800 -1,020 Descending Atlanta Center
01:27PM 33.6869 -84.8875 176° South 289 333 7,000 -480 Descending Atlanta Center
01:28PM 33.6500 -84.8500 140° Southeast 274 315 7,000 -540 Level Atlanta TRACON
01:29PM 33.6333 -84.7500 101° East 249 287 6,100 -1,080 Descending Atlanta TRACON
01:30PM 33.6333 -84.6833 90° East 220 253 4,900 -1,380 Descending Atlanta TRACON